Time;durP1;ratioP1;P1;durP2;ratioP2;P2;SDS_P1;SDS_P2;PMS_P1;PMS_P2;Temp;Humidity;BMP_temperature;BMP_pressure;BME280_temperature;BME280_humidity;BME280_pressure;Samples;Min_cycle;Max_cycle;Signal;HPM_P1;HPM_P2
2023/05/22 00:02:21;;;;;;;40.38;17.45;;;;;;;14.79;100.00;101572.06;5240008;28;20032;-74
2023/05/22 00:04:52;;;;;;;37.97;18.15;;;;;;;14.72;100.00;101568.38;5239168;28;20047;-73
2023/05/22 00:07:23;;;;;;;40.45;18.17;;;;;;;14.65;100.00;101578.19;5232521;28;20017;-74
2023/05/22 00:09:53;;;;;;;37.50;18.73;;;;;;;14.61;100.00;101566.03;5237620;28;20032;-74
2023/05/22 00:12:23;;;;;;;44.95;18.35;;;;;;;14.55;100.00;101566.75;5234197;28;20078;-74
2023/05/22 00:14:54;;;;;;;42.47;19.05;;;;;;;14.49;100.00;101568.28;5236064;28;20484;-74
2023/05/22 00:17:25;;;;;;;44.30;20.25;;;;;;;14.43;100.00;101560.88;5235252;28;20082;-73
2023/05/22 00:20:01;;;;;;;44.88;20.45;;;;;;;14.38;100.00;101564.09;5235777;28;20035;-74
2023/05/22 00:25:19;;;;;;;45.20;22.25;;;;;;;14.28;100.00;101552.66;5245357;28;20040;-73
2023/05/22 00:27:49;;;;;;;47.17;20.67;;;;;;;14.24;100.00;101551.31;5234700;28;20021;-74
2023/05/22 00:30:20;;;;;;;48.70;22.10;;;;;;;14.19;100.00;101551.81;5246867;28;20523;-74
2023/05/22 00:32:50;;;;;;;50.15;23.15;;;;;;;14.17;100.00;101555.72;5246965;28;20111;-74
2023/05/22 00:35:21;;;;;;;50.22;22.63;;;;;;;14.11;100.00;101551.84;5245985;28;20020;-73
2023/05/22 00:37:52;;;;;;;45.42;22.23;;;;;;;14.10;100.00;101550.16;5235455;28;20059;-73
2023/05/22 00:40:22;;;;;;;49.35;24.27;;;;;;;14.05;100.00;101549.81;5230256;28;20119;-73
2023/05/22 00:42:53;;;;;;;60.00;26.25;;;;;;;14.01;100.00;101548.50;5226587;28;20029;-73
2023/05/22 00:45:23;;;;;;;52.55;25.02;;;;;;;13.97;100.00;101548.00;5226648;28;20028;-73
2023/05/22 00:47:54;;;;;;;45.22;24.85;;;;;;;13.93;100.00;101540.41;5236830;28;20026;-73
2023/05/22 00:50:24;;;;;;;53.88;26.58;;;;;;;13.90;100.00;101554.25;5227223;28;20025;-73
2023/05/22 00:52:55;;;;;;;48.50;25.33;;;;;;;13.85;100.00;101560.13;5228287;28;20098;-73
2023/05/22 00:55:25;;;;;;;50.13;26.20;;;;;;;13.85;100.00;101557.44;5228337;28;20391;-73
2023/05/22 00:57:56;;;;;;;45.90;25.48;;;;;;;13.81;100.00;101558.81;5230358;28;20033;-73
2023/05/22 01:00:27;;;;;;;59.15;27.90;;;;;;;13.77;100.00;101557.47;5228929;28;20410;-73
2023/05/22 01:02:58;;;;;;;52.28;27.10;;;;;;;13.76;100.00;101555.78;5232537;28;20021;-73
2023/05/22 01:05:28;;;;;;;60.47;28.92;;;;;;;13.71;100.00;101560.84;5229720;28;20033;-73
2023/05/22 01:08:00;;;;;;;53.70;28.58;;;;;;;13.68;100.00;101553.94;5233690;28;20025;-73
2023/05/22 01:10:31;;;;;;;63.08;31.13;;;;;;;13.64;100.00;101547.19;5230695;28;20025;-74
2023/05/22 01:13:17;;;;;;;66.57;32.13;;;;;;;13.61;100.00;101539.44;5236894;28;20028;-73
2023/05/22 01:16:11;;;;;;;73.93;33.13;;;;;;;13.58;100.00;101539.78;5236947;28;20051;-74
2023/05/22 01:18:59;;;;;;;68.95;32.20;;;;;;;13.57;100.00;101538.09;5230775;28;20070;-74
2023/05/22 01:21:44;;;;;;;59.95;31.75;;;;;;;13.57;100.00;101546.19;5232422;28;20470;-73
2023/05/22 01:24:40;;;;;;;65.60;33.42;;;;;;;13.54;100.00;101542.97;5245147;28;20481;-73
2023/05/22 01:27:27;;;;;;;68.18;33.40;;;;;;;13.50;100.00;101536.22;5245385;28;20263;-73
2023/05/22 01:30:19;;;;;;;71.90;36.55;;;;;;;13.46;100.00;101541.97;5233175;28;20029;-73
2023/05/22 01:32:56;;;;;;;68.15;33.92;;;;;;;13.42;100.00;101537.09;5226663;28;20036;-73
2023/05/22 01:35:27;;;;;;;66.78;33.85;;;;;;;13.36;100.00;101537.78;5227314;28;20035;-74
2023/05/22 01:37:59;;;;;;;75.63;37.63;;;;;;;13.36;100.00;101529.69;5226253;28;20478;-74
2023/05/22 01:40:30;;;;;;;70.28;36.35;;;;;;;13.33;100.00;101533.53;5235284;28;20055;-73
2023/05/22 01:43:01;;;;;;;71.28;37.10;;;;;;;13.32;100.00;101531.03;5232459;28;20040;-74
2023/05/22 01:45:33;;;;;;;79.13;37.17;;;;;;;13.26;100.00;101529.84;5245926;28;20025;-74
2023/05/22 01:48:04;;;;;;;78.93;38.20;;;;;;;13.21;100.00;101532.16;5240101;28;20020;-73
2023/05/22 01:50:35;;;;;;;80.05;38.20;;;;;;;13.17;100.00;101531.66;5234084;28;20077;-73
2023/05/22 01:53:41;;;;;;;74.20;37.63;;;;;;;13.11;100.00;101524.25;5214319;28;20017;-73
2023/05/22 01:56:29;;;;;;;73.25;37.08;;;;;;;13.09;100.00;101530.78;5231233;28;20032;-73
2023/05/22 01:59:17;;;;;;;75.60;37.95;;;;;;;13.06;100.00;101526.59;5243920;28;20025;-73
2023/05/22 02:01:50;;;;;;;80.55;37.80;;;;;;;13.03;100.00;101526.06;5241814;28;20327;-73
2023/05/22 02:04:21;;;;;;;74.15;37.53;;;;;;;12.99;100.00;101528.25;5242261;28;20041;-73
2023/05/22 02:06:53;;;;;;;81.53;41.00;;;;;;;12.93;100.00;101526.22;5243852;28;20469;-73
2023/05/22 02:09:28;;;;;;;87.82;39.03;;;;;;;12.89;100.00;101528.38;5239890;28;20024;-73
2023/05/22 02:11:59;;;;;;;72.95;35.75;;;;;;;12.87;100.00;101529.56;5224739;28;20028;-73
2023/05/22 02:14:31;;;;;;;79.10;40.30;;;;;;;12.86;100.00;101527.91;5224692;28;20031;-73
2023/05/22 02:17:02;;;;;;;70.85;37.35;;;;;;;12.82;100.00;101526.53;5223912;28;20021;-73
2023/05/22 02:19:34;;;;;;;80.80;39.22;;;;;;;12.80;100.00;101518.63;5223922;28;20528;-73
2023/05/22 02:22:05;;;;;;;74.47;37.70;;;;;;;12.77;100.00;101524.34;5243793;28;20389;-73
2023/05/22 02:24:35;;;;;;;74.47;39.00;;;;;;;12.77;100.00;101521.63;5244919;28;20094;-73
2023/05/22 02:27:06;;;;;;;82.15;39.05;;;;;;;12.70;100.00;101521.47;5241638;28;20086;-73
2023/05/22 02:29:37;;;;;;;85.97;40.80;;;;;;;12.68;100.00;101522.63;5233957;28;20393;-73
2023/05/22 02:32:07;;;;;;;87.72;40.30;;;;;;;12.68;100.00;101528.00;5228910;28;20040;-73
2023/05/22 02:34:37;;;;;;;83.75;39.63;;;;;;;12.66;100.00;101530.88;5224976;28;20036;-73
2023/05/22 02:37:08;;;;;;;85.47;39.28;;;;;;;12.71;100.00;101533.06;5224246;28;20440;-73
2023/05/22 02:39:38;;;;;;;75.55;40.58;;;;;;;12.73;100.00;101531.03;5226313;28;20104;-73
2023/05/22 02:42:09;;;;;;;99.40;43.67;;;;;;;12.77;100.00;101532.41;5225457;28;20028;-73
2023/05/22 02:44:39;;;;;;;98.82;42.35;;;;;;;12.80;100.00;101531.22;5225155;28;20025;-73
2023/05/22 02:47:10;;;;;;;106.50;46.33;;;;;;;12.86;100.00;101533.28;5242309;28;20288;-73
2023/05/22 02:49:40;;;;;;;111.50;45.38;;;;;;;12.93;100.00;101529.75;5243121;28;20393;-74
2023/05/22 02:52:11;;;;;;;113.78;46.50;;;;;;;12.98;100.00;101531.09;5225616;28;20035;-73
2023/05/22 02:54:41;;;;;;;116.43;47.50;;;;;;;13.04;100.00;101522.34;5238005;28;20039;-73
2023/05/22 02:57:12;;;;;;;120.30;49.70;;;;;;;13.07;100.00;101517.50;5223910;28;20428;-73
2023/05/22 02:59:43;;;;;;;133.93;53.17;;;;;;;13.08;100.00;101524.56;5226279;28;20048;-73
2023/05/22 03:02:15;;;;;;;125.53;49.15;;;;;;;13.13;100.00;101524.91;5224835;28;20024;-73
2023/05/22 03:04:45;;;;;;;130.80;51.88;;;;;;;13.18;100.00;101519.84;5236843;28;20028;-73
2023/05/22 03:07:16;;;;;;;150.40;54.08;;;;;;;13.20;100.00;101522.38;5223533;28;20485;-73
2023/05/22 03:09:46;;;;;;;157.77;54.67;;;;;;;13.25;100.00;101517.34;5224393;28;20490;-73
2023/05/22 03:12:17;;;;;;;136.38;53.95;;;;;;;13.26;100.00;101521.75;5224498;28;20025;-73
2023/05/22 03:14:47;;;;;;;147.38;52.85;;;;;;;13.29;100.00;101520.56;5236676;28;20493;-73
2023/05/22 03:17:18;;;;;;;143.30;54.60;;;;;;;13.33;100.00;101516.53;5224106;28;20029;-73
2023/05/22 03:19:48;;;;;;;165.73;57.58;;;;;;;13.31;100.00;101514.00;5226028;28;20021;-74
2023/05/22 03:22:20;;;;;;;145.65;52.90;;;;;;;13.34;100.00;101520.91;5240526;28;20024;-73
2023/05/22 03:24:51;;;;;;;156.52;55.25;;;;;;;13.34;100.00;101510.97;5244159;28;20062;-74
2023/05/22 03:27:21;;;;;;;160.50;57.83;;;;;;;13.29;100.00;101516.03;5243487;28;20389;-73
2023/05/22 03:29:52;;;;;;;170.75;59.55;;;;;;;13.27;100.00;101515.34;5243857;28;20029;-73
2023/05/22 03:32:22;;;;;;;174.68;58.08;;;;;;;13.30;100.00;101511.47;5229860;28;20394;-73
2023/05/22 03:34:53;;;;;;;156.77;54.85;;;;;;;13.33;100.00;101519.22;5243663;28;20028;-73
2023/05/22 03:37:23;;;;;;;185.77;58.13;;;;;;;13.35;100.00;101509.09;5229831;28;20029;-73
2023/05/22 03:39:54;;;;;;;178.57;56.40;;;;;;;13.37;100.00;101512.50;5239248;28;20029;-73
2023/05/22 03:42:24;;;;;;;180.65;58.88;;;;;;;13.34;100.00;101510.13;5232096;28;20028;-74
2023/05/22 03:44:55;;;;;;;162.77;55.35;;;;;;;13.32;100.00;101520.25;5243211;28;20024;-73
2023/05/22 03:47:25;;;;;;;177.35;57.67;;;;;;;13.30;100.00;101520.38;5243117;28;20253;-74
2023/05/22 03:49:56;;;;;;;192.13;57.60;;;;;;;13.30;100.00;101523.09;5243733;28;20021;-73
2023/05/22 03:52:26;;;;;;;194.52;59.63;;;;;;;13.32;100.00;101525.63;5243808;28;20025;-73
2023/05/22 03:54:57;;;;;;;180.43;56.15;;;;;;;13.35;100.00;101523.44;5225679;28;20020;-74
2023/05/22 03:57:27;;;;;;;186.38;56.30;;;;;;;13.31;100.00;101523.97;5225018;28;20504;-74
2023/05/22 04:00:05;;;;;;;195.55;58.67;;;;;;;13.29;100.00;101521.41;5243511;28;20028;-73
2023/05/22 04:02:37;;;;;;;197.95;59.20;;;;;;;13.32;100.00;101515.69;5243688;28;20103;-73
2023/05/22 04:05:08;;;;;;;199.32;58.88;;;;;;;13.32;100.00;101517.56;5243935;28;20024;-73
2023/05/22 04:07:39;;;;;;;201.32;59.97;;;;;;;13.34;100.00;101518.22;5239357;28;20021;-74
2023/05/22 04:10:10;;;;;;;215.80;61.40;;;;;;;13.31;100.00;101523.97;5233367;28;20035;-73
2023/05/22 04:12:41;;;;;;;202.50;60.40;;;;;;;13.31;100.00;101526.66;5243529;28;20474;-73
2023/05/22 04:15:11;;;;;;;202.18;59.38;;;;;;;13.28;100.00;101522.44;5231413;28;20032;-73
2023/05/22 04:17:42;;;;;;;216.98;62.20;;;;;;;13.30;100.00;101520.38;5241333;28;20032;-74
2023/05/22 04:20:12;;;;;;;211.48;64.20;;;;;;;13.26;100.00;101521.75;5242114;28;20032;-74
2023/05/22 04:22:44;;;;;;;207.63;61.35;;;;;;;13.31;100.00;101524.78;5243468;28;20071;-74
2023/05/22 04:25:15;;;;;;;211.52;61.85;;;;;;;13.32;100.00;101528.34;5229914;28;20556;-74
2023/05/22 04:27:46;;;;;;;230.05;63.58;;;;;;;13.35;100.00;101533.38;5225213;28;20157;-73
2023/05/22 04:30:17;;;;;;;208.15;63.92;;;;;;;13.39;100.00;101532.03;5243256;28;20091;-73
2023/05/22 04:32:48;;;;;;;210.45;60.78;;;;;;;13.38;100.00;101535.75;5243456;28;20045;-73
2023/05/22 04:35:19;;;;;;;215.18;62.00;;;;;;;13.36;100.00;101529.69;5242956;28;20029;-74
2023/05/22 04:37:49;;;;;;;202.30;59.95;;;;;;;13.40;100.00;101531.88;5231572;28;20030;-73
2023/05/22 04:40:20;;;;;;;220.32;62.38;;;;;;;13.34;100.00;101537.91;5238512;28;20025;-74
2023/05/22 04:42:53;;;;;;;224.82;62.15;;;;;;;13.35;100.00;101533.38;5246632;28;20070;-73
2023/05/22 04:45:24;;;;;;;216.00;62.40;;;;;;;13.37;100.00;101539.44;5239821;28;20029;-74
2023/05/22 04:47:54;;;;;;;212.68;62.65;;;;;;;13.38;100.00;101541.13;5239162;28;20032;-74
2023/05/22 04:50:25;;;;;;;213.27;60.55;;;;;;;13.39;100.00;101545.50;5234310;28;20024;-73
2023/05/22 04:52:56;;;;;;;211.05;61.80;;;;;;;13.39;100.00;101540.94;5247121;28;20025;-74
2023/05/22 04:55:26;;;;;;;215.52;63.25;;;;;;;13.42;100.00;101543.31;5237755;28;20029;-74
2023/05/22 04:57:58;;;;;;;204.85;62.15;;;;;;;13.47;100.00;101543.66;5226939;28;20025;-74
2023/05/22 05:00:29;;;;;;;216.77;64.10;;;;;;;13.46;100.00;101544.69;5226495;28;20482;-74
2023/05/22 05:02:59;;;;;;;200.18;61.75;;;;;;;13.46;100.00;101547.38;5227102;28;20032;-74
2023/05/22 05:05:30;;;;;;;207.57;61.80;;;;;;;13.49;100.00;101535.41;5226710;28;20029;-73
2023/05/22 05:08:00;;;;;;;188.27;60.88;;;;;;;13.48;100.00;101545.34;5226562;28;20056;-74
2023/05/22 05:10:31;;;;;;;200.27;62.65;;;;;;;13.54;100.00;101538.44;5225977;28;20033;-74
2023/05/22 05:13:01;;;;;;;197.65;59.35;;;;;;;13.59;100.00;101544.16;5226679;28;20046;-74
2023/05/22 05:15:32;;;;;;;200.10;60.95;;;;;;;13.60;100.00;101547.69;5226062;28;20060;-74
2023/05/22 05:18:02;;;;;;;200.55;60.45;;;;;;;13.64;100.00;101543.66;5226070;28;20042;-74
2023/05/22 05:20:33;;;;;;;203.25;60.92;;;;;;;13.66;100.00;101545.19;5229710;28;20027;-74
2023/05/22 05:23:04;;;;;;;188.18;62.17;;;;;;;13.64;100.00;101544.50;5246230;28;20030;-74
2023/05/22 05:25:37;;;;;;;192.10;59.75;;;;;;;13.63;100.00;101550.91;5232301;28;20351;-74
2023/05/22 05:28:10;;;;;;;201.35;60.10;;;;;;;13.62;100.00;101560.00;5246178;28;20052;-74
2023/05/22 05:30:40;;;;;;;214.85;60.38;;;;;;;13.62;100.00;101551.91;5241367;28;20025;-74
2023/05/22 05:33:11;;;;;;;200.27;61.08;;;;;;;13.67;100.00;101554.09;5237777;28;20027;-74
2023/05/22 05:35:41;;;;;;;204.65;61.20;;;;;;;13.68;100.00;101553.94;5231884;28;20036;-74
2023/05/22 05:38:12;;;;;;;180.63;56.35;;;;;;;13.69;100.00;101558.31;5228157;28;20374;-74
2023/05/22 05:40:44;;;;;;;199.02;56.65;;;;;;;13.66;100.00;101561.34;5242781;28;20366;-74
2023/05/22 05:43:14;;;;;;;169.15;55.95;;;;;;;13.64;100.00;101560.66;5245814;28;20420;-74
2023/05/22 05:45:45;;;;;;;172.43;55.58;;;;;;;13.61;100.00;101557.50;5244935;28;20031;-74
2023/05/22 05:48:15;;;;;;;170.25;56.78;;;;;;;13.65;100.00;101556.94;5245670;28;20474;-74
2023/05/22 05:50:46;;;;;;;150.93;52.40;;;;;;;13.69;100.00;101563.69;5245875;28;20443;-74
2023/05/22 05:53:16;;;;;;;159.18;55.40;;;;;;;13.69;100.00;101563.69;5231836;28;20381;-74
2023/05/22 05:55:47;;;;;;;158.20;53.63;;;;;;;13.72;100.00;101562.53;5244991;28;20016;-74
2023/05/22 05:58:18;;;;;;;148.35;51.50;;;;;;;13.80;100.00;101570.59;5245137;28;20020;-74
2023/05/22 06:00:48;;;;;;;170.32;53.95;;;;;;;13.86;100.00;101569.09;5233164;28;20024;-74
2023/05/22 06:03:18;;;;;;;144.98;47.50;;;;;;;13.89;100.00;101569.59;5237131;28;20028;-74
2023/05/22 06:05:49;;;;;;;157.75;54.20;;;;;;;13.80;100.00;101567.06;5237849;28;20025;-74
2023/05/22 06:08:20;;;;;;;149.68;53.05;;;;;;;13.80;100.00;101565.19;5237688;28;20052;-74
2023/05/22 06:10:51;;;;;;;143.10;50.28;;;;;;;13.84;100.00;101569.25;5224271;28;20028;-74
2023/05/22 06:13:21;;;;;;;133.55;48.08;;;;;;;13.81;100.00;101571.47;5224630;28;20025;-74
2023/05/22 06:15:52;;;;;;;137.48;49.70;;;;;;;13.87;100.00;101577.00;5237024;28;20486;-74
2023/05/22 06:18:24;;;;;;;129.60;48.10;;;;;;;13.92;100.00;101577.34;5224720;28;20486;-74
2023/05/22 06:20:57;;;;;;;135.38;48.50;;;;;;;13.91;100.00;101577.53;5238230;28;20021;-74
2023/05/22 06:23:28;;;;;;;121.38;48.25;;;;;;;13.89;100.00;101576.84;5245313;28;20074;-74
2023/05/22 06:25:58;;;;;;;113.93;45.42;;;;;;;13.89;100.00;101580.38;5244455;28;20431;-74
2023/05/22 06:28:29;;;;;;;111.13;44.75;;;;;;;13.91;100.00;101581.06;5245183;28;20028;-74
2023/05/22 06:31:00;;;;;;;113.20;44.38;;;;;;;13.87;100.00;101585.09;5244955;28;20393;-74
2023/05/22 06:33:30;;;;;;;111.70;44.92;;;;;;;13.90;100.00;101590.13;5244702;28;20473;-74
2023/05/22 06:36:02;;;;;;;115.70;46.55;;;;;;;14.01;100.00;101588.97;5244140;28;20086;-74
2023/05/22 06:38:33;;;;;;;106.13;45.35;;;;;;;14.10;100.00;101593.31;5244789;28;20024;-74
2023/05/22 06:41:04;;;;;;;111.47;46.13;;;;;;;14.17;100.00;101594.34;5241341;28;20029;-74
2023/05/22 06:43:35;;;;;;;106.82;46.00;;;;;;;14.20;100.00;101599.38;5244619;28;20477;-74
2023/05/22 06:46:05;;;;;;;107.50;43.20;;;;;;;14.22;100.00;101600.06;5243811;28;20025;-74
2023/05/22 06:48:36;;;;;;;117.45;44.80;;;;;;;14.17;100.00;101605.13;5238395;28;20079;-74
2023/05/22 06:51:09;;;;;;;119.72;47.42;;;;;;;14.23;100.00;101599.03;5237469;28;20024;-74
2023/05/22 06:53:40;;;;;;;131.02;50.15;;;;;;;14.28;100.00;101595.81;5232075;28;20035;-74
2023/05/22 06:56:10;;;;;;;122.40;50.63;;;;;;;14.28;100.00;101605.78;5244254;28;20024;-74
2023/05/22 06:58:41;;;;;;;128.20;49.13;;;;;;;14.30;100.00;101601.03;5244319;28;20020;-74
2023/05/22 07:01:11;;;;;;;131.43;49.22;;;;;;;14.32;100.00;101610.66;5241415;28;20444;-74
2023/05/22 07:03:42;;;;;;;119.82;48.30;;;;;;;14.33;100.00;101619.59;5234145;28;20025;-74
2023/05/22 07:06:12;;;;;;;127.40;50.50;;;;;;;14.29;100.00;101613.69;5243535;28;20401;-74
2023/05/22 07:08:43;;;;;;;128.27;49.13;;;;;;;14.31;100.00;101609.00;5232632;28;20029;-74
2023/05/22 07:11:13;;;;;;;144.43;51.72;;;;;;;14.34;100.00;101614.03;5229142;28;20094;-74
2023/05/22 07:13:44;;;;;;;148.80;53.10;;;;;;;14.41;100.00;101611.50;5231233;28;20023;-74
2023/05/22 07:16:14;;;;;;;148.50;54.30;;;;;;;14.42;100.00;101615.88;5243412;28;20032;-74
2023/05/22 07:18:45;;;;;;;145.60;53.17;;;;;;;14.45;100.00;101626.31;5244340;28;20025;-74
2023/05/22 07:21:15;;;;;;;158.55;53.97;;;;;;;14.61;100.00;101625.44;5241518;28;20024;-74
2023/05/22 07:23:46;;;;;;;133.35;51.15;;;;;;;14.70;100.00;101617.16;5241720;28;20112;-74
2023/05/22 07:26:17;;;;;;;127.68;48.40;;;;;;;14.62;100.00;101625.28;5232542;28;20389;-74
2023/05/22 07:28:48;;;;;;;131.02;47.97;;;;;;;14.68;100.00;101623.75;5244298;28;20020;-74
2023/05/22 07:31:18;;;;;;;136.20;47.67;;;;;;;14.77;100.00;101623.56;5244378;28;20032;-74
2023/05/22 07:33:49;;;;;;;117.28;45.97;;;;;;;14.90;100.00;101628.38;5244250;28;20024;-74
2023/05/22 07:36:19;;;;;;;110.40;44.83;;;;;;;14.98;100.00;101625.66;5242903;28;20054;-74
2023/05/22 07:38:50;;;;;;;123.80;47.70;;;;;;;14.98;100.00;101632.91;5224979;28;20021;-73
2023/05/22 07:41:21;;;;;;;129.55;46.30;;;;;;;14.98;100.00;101630.22;5239571;28;20039;-74
2023/05/22 07:43:52;;;;;;;102.93;43.88;;;;;;;15.04;100.00;101634.91;5244222;28;20051;-74
2023/05/22 07:46:22;;;;;;;108.57;44.47;;;;;;;15.15;100.00;101637.22;5243060;28;20024;-74
2023/05/22 07:48:53;;;;;;;116.38;45.55;;;;;;;15.26;100.00;101635.97;5233976;28;20029;-73
2023/05/22 07:51:23;;;;;;;112.10;44.90;;;;;;;15.31;100.00;101632.72;5225856;28;20025;-74
2023/05/22 07:53:54;;;;;;;114.88;45.10;;;;;;;15.40;100.00;101628.97;5234561;28;20024;-74
2023/05/22 07:56:26;;;;;;;122.53;45.85;;;;;;;15.36;100.00;101633.91;5239415;28;20025;-74
2023/05/22 07:58:56;;;;;;;113.10;44.13;;;;;;;15.41;100.00;101644.16;5233174;28;20073;-74
2023/05/22 08:01:27;;;;;;;120.05;47.03;;;;;;;15.49;100.00;101633.31;5236385;28;20057;-74
2023/05/22 08:03:57;;;;;;;117.85;45.67;;;;;;;15.61;100.00;101639.13;5223528;28;20027;-74
2023/05/22 08:06:28;;;;;;;102.32;44.58;;;;;;;15.72;100.00;101639.59;5228968;28;20020;-74
2023/05/22 08:08:59;;;;;;;123.53;45.78;;;;;;;15.80;100.00;101642.22;5229959;28;20033;-74
2023/05/22 08:11:30;;;;;;;100.50;43.22;;;;;;;15.95;100.00;101647.69;5224640;28;20365;-74
2023/05/22 08:14:00;;;;;;;97.75;41.03;;;;;;;16.06;100.00;101638.28;5226082;28;20323;-74
2023/05/22 08:16:31;;;;;;;97.18;42.67;;;;;;;15.89;100.00;101640.28;5233944;28;20024;-74
2023/05/22 08:19:02;;;;;;;88.93;38.95;;;;;;;15.83;100.00;101646.44;5232866;28;20413;-74
2023/05/22 08:21:33;;;;;;;99.47;39.97;;;;;;;15.85;100.00;101640.84;5234020;28;20068;-74
2023/05/22 08:24:03;;;;;;;102.03;41.30;;;;;;;15.84;100.00;101648.13;5244237;28;20029;-74
2023/05/22 08:26:34;;;;;;;105.22;40.95;;;;;;;15.90;100.00;101650.09;5247135;28;20070;-74
2023/05/22 08:29:04;;;;;;;97.20;40.08;;;;;;;16.12;100.00;101652.97;5247520;28;20024;-74
2023/05/22 08:31:35;;;;;;;95.03;40.25;;;;;;;16.03;100.00;101660.31;5235358;28;20108;-74
2023/05/22 08:34:06;;;;;;;93.25;40.72;;;;;;;15.94;100.00;101654.13;5246535;28;20108;-74
2023/05/22 08:36:36;;;;;;;90.32;42.97;;;;;;;15.86;100.00;101659.59;5246164;28;20036;-74
2023/05/22 08:39:08;;;;;;;96.13;40.83;;;;;;;15.74;100.00;101666.47;5247534;28;20050;-74
2023/05/22 08:41:39;;;;;;;98.97;41.63;;;;;;;15.65;100.00;101662.97;5229544;28;20017;-74
2023/05/22 08:44:12;;;;;;;105.88;43.55;;;;;;;15.67;100.00;101670.91;5238417;28;20025;-74
2023/05/22 08:46:44;;;;;;;105.40;42.78;;;;;;;15.76;100.00;101664.41;5242009;28;20033;-74
2023/05/22 08:49:17;;;;;;;96.88;42.03;;;;;;;15.89;100.00;101667.34;5246828;28;20781;-74
2023/05/22 08:51:54;;;;;;;105.50;45.75;;;;;;;16.09;100.00;101667.69;5246725;28;20097;-74
2023/05/22 08:54:27;;;;;;;115.47;47.72;;;;;;;16.19;100.00;101665.56;5246807;28;20031;-74
2023/05/22 08:56:58;;;;;;;105.75;45.38;;;;;;;16.25;100.00;101656.72;5245976;28;20500;-74
2023/05/22 08:59:29;;;;;;;102.07;43.00;;;;;;;16.26;100.00;101658.38;5233281;28;20036;-74
2023/05/22 09:02:00;;;;;;;122.75;52.00;;;;;;;16.23;100.00;101656.06;5238734;28;20028;-74
2023/05/22 09:04:31;;;;;;;128.38;54.17;;;;;;;16.35;100.00;101658.31;5225779;28;20025;-74
2023/05/22 09:07:04;;;;;;;128.70;52.20;;;;;;;16.38;100.00;101655.25;5207514;28;20071;-74
2023/05/22 09:09:37;;;;;;;136.40;58.58;;;;;;;16.41;100.00;101655.72;5238777;28;20037;-74
2023/05/22 09:12:09;;;;;;;124.18;54.70;;;;;;;16.52;100.00;101659.84;5224896;28;20025;-74
2023/05/22 09:14:40;;;;;;;142.70;61.05;;;;;;;16.49;100.00;101663.75;5244627;28;20025;-74
2023/05/22 09:17:14;;;;;;;145.52;61.22;;;;;;;16.48;100.00;101663.94;5245715;28;20033;-74
2023/05/22 09:19:45;;;;;;;154.52;63.22;;;;;;;16.51;100.00;101660.84;5245518;28;20056;-74
2023/05/22 09:22:16;;;;;;;166.10;66.55;;;;;;;16.50;100.00;101660.00;5243949;28;20032;-74
2023/05/22 09:24:47;;;;;;;156.00;67.88;;;;;;;16.56;100.00;101663.84;5246146;28;20039;-74
2023/05/22 09:27:22;;;;;;;133.40;59.72;;;;;;;16.53;100.00;101665.06;5231413;28;20013;-74
2023/05/22 09:29:56;;;;;;;141.73;60.67;;;;;;;16.54;100.00;101655.91;5246297;28;20024;-74
2023/05/22 09:32:42;;;;;;;130.85;57.92;;;;;;;16.65;100.00;101657.31;5239315;28;20025;-74
2023/05/22 09:35:13;;;;;;;132.43;56.35;;;;;;;16.82;100.00;101648.03;5226267;28;20826;-74
2023/05/22 09:37:43;;;;;;;127.28;58.35;;;;;;;16.79;100.00;101655.69;5225526;28;20031;-74
2023/05/22 09:40:14;;;;;;;128.65;57.20;;;;;;;16.76;100.00;101651.47;5229595;28;20385;-74
2023/05/22 09:42:44;;;;;;;140.73;60.35;;;;;;;16.61;100.00;101663.28;5226434;28;20532;-74
2023/05/22 09:45:19;;;;;;;130.52;58.78;;;;;;;16.62;100.00;101664.97;5227451;28;20024;-74
2023/05/22 09:47:50;;;;;;;137.60;61.85;;;;;;;16.65;100.00;101665.44;5236085;28;20024;-74
2023/05/22 09:50:20;;;;;;;134.93;60.13;;;;;;;16.68;100.00;101665.09;5226847;28;20508;-74
2023/05/22 09:52:52;;;;;;;137.45;56.00;;;;;;;16.69;100.00;101661.34;5227604;28;20195;-74
2023/05/22 09:55:25;;;;;;;122.47;55.17;;;;;;;16.82;100.00;101664.28;5227145;28;20036;-74
2023/05/22 09:57:57;;;;;;;97.65;48.17;;;;;;;16.84;100.00;101655.94;5226927;28;20032;-74
2023/05/22 10:00:28;;;;;;;105.07;48.95;;;;;;;16.78;100.00;101660.25;5226314;28;20104;-74
2023/05/22 10:03:05;;;;;;;92.53;44.92;;;;;;;16.83;100.00;101660.53;5228915;28;20501;-74
2023/05/22 10:05:37;;;;;;;82.20;43.05;;;;;;;17.03;100.00;101657.25;5226370;28;20024;-74
2023/05/22 10:08:10;;;;;;;93.63;47.50;;;;;;;17.19;100.00;101662.44;5228848;28;20017;-74
2023/05/22 10:10:46;;;;;;;83.53;43.33;;;;;;;17.43;100.00;101655.03;5228441;28;20490;-74
2023/05/22 10:13:17;;;;;;;90.50;46.17;;;;;;;17.53;100.00;101658.25;5229401;28;20127;-74
2023/05/22 10:15:49;;;;;;;100.90;51.17;;;;;;;17.54;100.00;101654.50;5231160;28;20119;-74
2023/05/22 10:18:20;;;;;;;92.45;45.33;;;;;;;17.53;100.00;101648.25;5229963;28;20486;-74
2023/05/22 10:20:52;;;;;;;96.68;48.40;;;;;;;17.48;100.00;101650.69;5234480;28;20032;-74
2023/05/22 10:23:23;;;;;;;99.50;44.75;;;;;;;17.35;100.00;101656.78;5232911;28;20505;-74
2023/05/22 10:25:54;;;;;;;93.07;47.70;;;;;;;17.29;100.00;101659.44;5225187;28;20025;-74
2023/05/22 10:28:39;;;;;;;96.18;47.60;;;;;;;17.33;100.00;101649.91;5224493;28;20021;-74
2023/05/22 10:31:17;;;;;;;104.70;51.40;;;;;;;17.38;100.00;101654.75;5244200;28;20037;-74
2023/05/22 10:33:53;;;;;;;99.55;46.88;;;;;;;17.56;100.00;101649.72;5230088;28;20319;-74
2023/05/22 10:37:01;;;;;;;94.10;47.75;;;;;;;17.41;100.00;101641.63;5226242;28;20395;-74
2023/05/22 10:39:48;;;;;;;91.00;46.78;;;;;;;17.43;100.00;101646.88;5223685;28;20032;-74
2023/05/22 10:42:19;;;;;;;84.00;44.75;;;;;;;17.42;100.00;101645.16;5231241;28;20024;-75
2023/05/22 10:44:51;;;;;;;82.43;44.85;;;;;;;17.51;100.00;101644.03;5231328;28;20032;-74
2023/05/22 10:47:22;;;;;;;91.43;44.70;;;;;;;17.55;100.00;101639.91;5227536;28;20091;-74
2023/05/22 10:50:03;;;;;;;84.88;44.20;;;;;;;17.65;100.00;101639.59;5239183;28;20044;-75
2023/05/22 10:52:35;;;;;;;70.88;39.00;;;;;;;17.71;100.00;101641.50;5226352;28;20036;-74
2023/05/22 10:55:07;;;;;;;79.97;40.13;;;;;;;17.74;100.00;101636.59;5228661;28;20518;-74
2023/05/22 10:57:38;;;;;;;78.50;39.35;;;;;;;17.83;100.00;101635.41;5225784;28;20501;-74
2023/05/22 11:00:13;;;;;;;72.07;35.35;;;;;;;17.83;100.00;101642.72;5230093;28;20054;-74
2023/05/22 11:02:45;;;;;;;68.43;34.25;;;;;;;17.85;100.00;101644.19;5238242;28;20032;-74
2023/05/22 11:05:35;;;;;;;70.90;33.75;;;;;;;18.03;100.00;101642.91;5233550;28;20028;-74
2023/05/22 11:08:38;;;;;;;70.40;32.20;;;;;;;18.36;100.00;101635.81;5233377;28;20028;-74
2023/05/22 11:11:11;;;;;;;58.05;29.77;;;;;;;18.43;100.00;101643.22;5233912;28;20167;-75
2023/05/22 11:13:42;;;;;;;60.17;31.00;;;;;;;18.59;100.00;101640.16;5231891;28;20546;-75
2023/05/22 11:16:15;;;;;;;59.55;30.38;;;;;;;18.67;100.00;101647.31;5235123;28;20028;-74
2023/05/22 11:18:45;;;;;;;64.50;32.03;;;;;;;18.72;100.00;101651.13;5231046;28;20028;-75
2023/05/22 11:21:16;;;;;;;60.35;29.77;;;;;;;18.84;100.00;101643.25;5222640;28;20025;-74
2023/05/22 11:23:46;;;;;;;63.03;31.40;;;;;;;18.91;100.00;101641.41;5238948;28;20127;-74